sensor_id;sensor_type;location;lat;lon;timestamp;temperature;humidity
53653;DHT22;39553;52.954;5.932;2022-10-16T00:01:26;12.00;99.90
53653;DHT22;39553;52.954;5.932;2022-10-16T00:03:52;12.10;99.90
53653;DHT22;39553;52.954;5.932;2022-10-16T00:06:20;12.10;99.90
53653;DHT22;39553;52.954;5.932;2022-10-16T00:08:47;12.10;99.90
53653;DHT22;39553;52.954;5.932;2022-10-16T00:11:18;12.20;99.90
53653;DHT22;39553;52.954;5.932;2022-10-16T00:13:46;12.20;99.90
53653;DHT22;39553;52.954;5.932;2022-10-16T00:16:13;12.20;99.90
53653;DHT22;39553;52.954;5.932;2022-10-16T00:18:39;12.20;99.90
53653;DHT22;39553;52.954;5.932;2022-10-16T00:21:15;12.20;99.90
53653;DHT22;39553;52.954;5.932;2022-10-16T00:23:41;12.20;99.90
53653;DHT22;39553;52.954;5.932;2022-10-16T00:26:10;12.30;99.90
53653;DHT22;39553;52.954;5.932;2022-10-16T00:28:36;12.30;99.90
53653;DHT22;39553;52.954;5.932;2022-10-16T00:31:04;12.30;99.90
53653;DHT22;39553;52.954;5.932;2022-10-16T00:33:30;12.30;99.90
53653;DHT22;39553;52.954;5.932;2022-10-16T00:36:01;12.30;99.90
53653;DHT22;39553;52.954;5.932;2022-10-16T00:38:26;12.40;99.90
53653;DHT22;39553;52.954;5.932;2022-10-16T00:40:52;12.40;99.90
53653;DHT22;39553;52.954;5.932;2022-10-16T00:43:41;12.40;99.90
53653;DHT22;39553;52.954;5.932;2022-10-16T00:46:43;12.50;99.90
53653;DHT22;39553;52.954;5.932;2022-10-16T00:49:15;12.50;99.90
53653;DHT22;39553;52.954;5.932;2022-10-16T00:51:46;12.50;99.90
53653;DHT22;39553;52.954;5.932;2022-10-16T00:54:26;12.50;99.90
53653;DHT22;39553;52.954;5.932;2022-10-16T00:56:53;12.50;99.90
53653;DHT22;39553;52.954;5.932;2022-10-16T00:59:30;12.50;99.90
53653;DHT22;39553;52.954;5.932;2022-10-16T01:01:56;12.50;99.90
53653;DHT22;39553;52.954;5.932;2022-10-16T01:04:23;12.50;99.90
53653;DHT22;39553;52.954;5.932;2022-10-16T01:06:56;12.50;99.90
53653;DHT22;39553;52.954;5.932;2022-10-16T01:12:43;12.60;99.90
53653;DHT22;39553;52.954;5.932;2022-10-16T01:20:35;12.60;99.90
53653;DHT22;39553;52.954;5.932;2022-10-16T01:23:09;12.60;99.90
53653;DHT22;39553;52.954;5.932;2022-10-16T01:29:03;12.70;99.90
53653;DHT22;39553;52.954;5.932;2022-10-16T01:31:35;12.60;99.90
53653;DHT22;39553;52.954;5.932;2022-10-16T01:35:04;12.60;99.90
53653;DHT22;39553;52.954;5.932;2022-10-16T01:37:33;12.70;99.90
53653;DHT22;39553;52.954;5.932;2022-10-16T01:40:01;12.60;99.90
53653;DHT22;39553;52.954;5.932;2022-10-16T01:42:36;12.60;99.90
53653;DHT22;39553;52.954;5.932;2022-10-16T01:45:05;12.60;99.90
53653;DHT22;39553;52.954;5.932;2022-10-16T01:47:35;12.70;99.90
53653;DHT22;39553;52.954;5.932;2022-10-16T01:50:04;12.70;99.90
53653;DHT22;39553;52.954;5.932;2022-10-16T01:52:32;12.70;99.90
53653;DHT22;39553;52.954;5.932;2022-10-16T01:55:02;12.70;99.90
53653;DHT22;39553;52.954;5.932;2022-10-16T01:57:30;12.70;99.90
53653;DHT22;39553;52.954;5.932;2022-10-16T02:00:04;12.60;99.90
53653;DHT22;39553;52.954;5.932;2022-10-16T02:02:31;12.60;99.90
53653;DHT22;39553;52.954;5.932;2022-10-16T02:05:04;12.60;99.90
53653;DHT22;39553;52.954;5.932;2022-10-16T02:07:33;12.60;99.90
53653;DHT22;39553;52.954;5.932;2022-10-16T02:10:00;12.50;99.90
53653;DHT22;39553;52.954;5.932;2022-10-16T02:12:36;12.60;99.90
53653;DHT22;39553;52.954;5.932;2022-10-16T02:15:05;12.60;99.90
53653;DHT22;39553;52.954;5.932;2022-10-16T02:17:31;12.60;99.90
53653;DHT22;39553;52.954;5.932;2022-10-16T02:19:57;12.60;99.90
53653;DHT22;39553;52.954;5.932;2022-10-16T02:22:46;12.60;99.90
53653;DHT22;39553;52.954;5.932;2022-10-16T02:25:31;12.50;99.90
53653;DHT22;39553;52.954;5.932;2022-10-16T02:28:08;12.50;99.90
53653;DHT22;39553;52.954;5.932;2022-10-16T02:30:56;12.50;99.90
53653;DHT22;39553;52.954;5.932;2022-10-16T02:33:24;12.40;99.90
53653;DHT22;39553;52.954;5.932;2022-10-16T02:35:51;12.40;99.90
53653;DHT22;39553;52.954;5.932;2022-10-16T02:38:18;12.40;99.90
53653;DHT22;39553;52.954;5.932;2022-10-16T02:40:45;12.30;99.90
53653;DHT22;39553;52.954;5.932;2022-10-16T02:43:11;12.40;99.90
53653;DHT22;39553;52.954;5.932;2022-10-16T02:45:37;12.30;99.90
53653;DHT22;39553;52.954;5.932;2022-10-16T02:48:03;12.30;99.90
53653;DHT22;39553;52.954;5.932;2022-10-16T02:50:29;12.30;99.90
53653;DHT22;39553;52.954;5.932;2022-10-16T02:52:55;12.30;99.90
53653;DHT22;39553;52.954;5.932;2022-10-16T02:55:20;12.30;99.90
53653;DHT22;39553;52.954;5.932;2022-10-16T02:57:46;12.30;99.90
53653;DHT22;39553;52.954;5.932;2022-10-16T03:00:14;12.30;99.90
53653;DHT22;39553;52.954;5.932;2022-10-16T03:02:40;12.30;99.90
53653;DHT22;39553;52.954;5.932;2022-10-16T03:05:07;12.30;99.90
53653;DHT22;39553;52.954;5.932;2022-10-16T03:07:33;12.30;99.90
53653;DHT22;39553;52.954;5.932;2022-10-16T03:09:59;12.30;99.90
53653;DHT22;39553;52.954;5.932;2022-10-16T03:12:28;12.20;99.90
53653;DHT22;39553;52.954;5.932;2022-10-16T03:14:54;12.30;99.90
53653;DHT22;39553;52.954;5.932;2022-10-16T03:17:20;12.30;99.90
53653;DHT22;39553;52.954;5.932;2022-10-16T03:19:46;12.30;99.90
53653;DHT22;39553;52.954;5.932;2022-10-16T03:22:11;12.30;99.90
53653;DHT22;39553;52.954;5.932;2022-10-16T03:24:37;12.30;99.90
53653;DHT22;39553;52.954;5.932;2022-10-16T03:27:03;12.30;99.90
53653;DHT22;39553;52.954;5.932;2022-10-16T03:29:28;12.30;99.90
53653;DHT22;39553;52.954;5.932;2022-10-16T03:31:55;12.30;99.90
53653;DHT22;39553;52.954;5.932;2022-10-16T03:34:22;12.20;99.90
53653;DHT22;39553;52.954;5.932;2022-10-16T03:36:47;12.30;99.90
53653;DHT22;39553;52.954;5.932;2022-10-16T03:39:13;12.20;99.90
53653;DHT22;39553;52.954;5.932;2022-10-16T03:41:39;12.20;99.90
53653;DHT22;39553;52.954;5.932;2022-10-16T03:44:05;12.20;99.90
53653;DHT22;39553;52.954;5.932;2022-10-16T03:46:31;12.10;99.90
53653;DHT22;39553;52.954;5.932;2022-10-16T03:48:57;12.10;99.90
53653;DHT22;39553;52.954;5.932;2022-10-16T03:51:22;12.10;99.90
53653;DHT22;39553;52.954;5.932;2022-10-16T03:53:48;12.10;99.90
53653;DHT22;39553;52.954;5.932;2022-10-16T03:56:14;12.20;99.90
53653;DHT22;39553;52.954;5.932;2022-10-16T03:58:39;12.20;99.90
53653;DHT22;39553;52.954;5.932;2022-10-16T04:01:05;12.30;99.90
53653;DHT22;39553;52.954;5.932;2022-10-16T04:03:31;12.30;99.90
53653;DHT22;39553;52.954;5.932;2022-10-16T04:05:56;12.40;99.90
53653;DHT22;39553;52.954;5.932;2022-10-16T04:08:22;12.40;99.90
53653;DHT22;39553;52.954;5.932;2022-10-16T04:10:48;12.40;99.90
53653;DHT22;39553;52.954;5.932;2022-10-16T04:13:14;12.40;99.90
53653;DHT22;39553;52.954;5.932;2022-10-16T04:15:40;12.40;99.90
53653;DHT22;39553;52.954;5.932;2022-10-16T04:18:06;12.40;99.90
53653;DHT22;39553;52.954;5.932;2022-10-16T04:20:33;12.50;99.90
53653;DHT22;39553;52.954;5.932;2022-10-16T04:22:58;12.50;99.90
53653;DHT22;39553;52.954;5.932;2022-10-16T04:25:24;12.60;99.90
53653;DHT22;39553;52.954;5.932;2022-10-16T04:27:52;12.60;99.90
53653;DHT22;39553;52.954;5.932;2022-10-16T04:30:19;12.60;99.90
53653;DHT22;39553;52.954;5.932;2022-10-16T04:32:51;12.60;99.90
53653;DHT22;39553;52.954;5.932;2022-10-16T04:35:21;12.50;99.90
53653;DHT22;39553;52.954;5.932;2022-10-16T04:37:47;12.50;99.90
53653;DHT22;39553;52.954;5.932;2022-10-16T04:40:13;12.40;99.90
53653;DHT22;39553;52.954;5.932;2022-10-16T04:42:39;12.40;99.90
53653;DHT22;39553;52.954;5.932;2022-10-16T04:45:06;12.40;99.90
53653;DHT22;39553;52.954;5.932;2022-10-16T04:47:32;12.40;99.90
53653;DHT22;39553;52.954;5.932;2022-10-16T04:49:58;12.40;99.90
53653;DHT22;39553;52.954;5.932;2022-10-16T04:52:26;12.40;99.90
53653;DHT22;39553;52.954;5.932;2022-10-16T04:54:52;12.40;99.90
53653;DHT22;39553;52.954;5.932;2022-10-16T04:57:19;12.40;99.90
53653;DHT22;39553;52.954;5.932;2022-10-16T04:59:45;12.70;99.90
53653;DHT22;39553;52.954;5.932;2022-10-16T05:02:10;12.40;99.90
53653;DHT22;39553;52.954;5.932;2022-10-16T05:04:36;12.40;99.90
53653;DHT22;39553;52.954;5.932;2022-10-16T05:07:02;12.40;99.90
53653;DHT22;39553;52.954;5.932;2022-10-16T05:09:27;12.40;99.90
53653;DHT22;39553;52.954;5.932;2022-10-16T05:11:53;12.50;99.90
53653;DHT22;39553;52.954;5.932;2022-10-16T05:14:19;12.50;99.90
53653;DHT22;39553;52.954;5.932;2022-10-16T05:16:44;12.50;99.90
53653;DHT22;39553;52.954;5.932;2022-10-16T05:19:10;12.50;99.90
53653;DHT22;39553;52.954;5.932;2022-10-16T05:21:36;12.50;99.90
53653;DHT22;39553;52.954;5.932;2022-10-16T05:24:02;12.50;99.90
53653;DHT22;39553;52.954;5.932;2022-10-16T05:26:27;12.50;99.90
53653;DHT22;39553;52.954;5.932;2022-10-16T05:28:53;12.50;99.90
53653;DHT22;39553;52.954;5.932;2022-10-16T05:31:19;12.50;99.90
53653;DHT22;39553;52.954;5.932;2022-10-16T05:33:45;12.50;99.90
53653;DHT22;39553;52.954;5.932;2022-10-16T05:36:11;12.50;99.90
53653;DHT22;39553;52.954;5.932;2022-10-16T05:38:37;12.50;99.90
53653;DHT22;39553;52.954;5.932;2022-10-16T05:41:04;12.50;99.90
53653;DHT22;39553;52.954;5.932;2022-10-16T05:43:31;12.50;99.90
53653;DHT22;39553;52.954;5.932;2022-10-16T05:46:04;12.90;99.90
53653;DHT22;39553;52.954;5.932;2022-10-16T05:48:30;12.50;99.90
53653;DHT22;39553;52.954;5.932;2022-10-16T05:50:58;12.50;99.90
53653;DHT22;39553;52.954;5.932;2022-10-16T05:53:24;12.50;99.90
53653;DHT22;39553;52.954;5.932;2022-10-16T05:55:55;12.50;99.90
53653;DHT22;39553;52.954;5.932;2022-10-16T05:58:21;12.60;99.90
53653;DHT22;39553;52.954;5.932;2022-10-16T06:01:01;12.60;99.90
53653;DHT22;39553;52.954;5.932;2022-10-16T06:03:27;12.60;99.90
53653;DHT22;39553;52.954;5.932;2022-10-16T06:05:53;12.60;99.90
53653;DHT22;39553;52.954;5.932;2022-10-16T06:08:20;12.70;99.90
53653;DHT22;39553;52.954;5.932;2022-10-16T06:10:46;12.60;99.90
53653;DHT22;39553;52.954;5.932;2022-10-16T06:13:12;12.70;99.90
53653;DHT22;39553;52.954;5.932;2022-10-16T06:15:40;12.70;99.90
53653;DHT22;39553;52.954;5.932;2022-10-16T06:18:10;12.60;99.90
53653;DHT22;39553;52.954;5.932;2022-10-16T06:20:37;12.60;99.90
53653;DHT22;39553;52.954;5.932;2022-10-16T06:23:03;12.60;99.90
53653;DHT22;39553;52.954;5.932;2022-10-16T06:25:30;12.60;99.90
53653;DHT22;39553;52.954;5.932;2022-10-16T06:27:56;12.60;99.90
53653;DHT22;39553;52.954;5.932;2022-10-16T06:30:22;12.60;99.90
53653;DHT22;39553;52.954;5.932;2022-10-16T06:32:48;12.60;99.90
53653;DHT22;39553;52.954;5.932;2022-10-16T06:35:13;12.60;99.90
53653;DHT22;39553;52.954;5.932;2022-10-16T06:37:39;12.60;99.90
53653;DHT22;39553;52.954;5.932;2022-10-16T06:40:05;12.50;99.90
53653;DHT22;39553;52.954;5.932;2022-10-16T06:42:31;12.50;99.90
53653;DHT22;39553;52.954;5.932;2022-10-16T06:44:57;12.40;99.90
53653;DHT22;39553;52.954;5.932;2022-10-16T06:47:22;12.50;99.90
53653;DHT22;39553;52.954;5.932;2022-10-16T06:49:48;12.50;99.90
53653;DHT22;39553;52.954;5.932;2022-10-16T06:52:14;12.50;99.90
53653;DHT22;39553;52.954;5.932;2022-10-16T06:54:39;12.40;99.90
53653;DHT22;39553;52.954;5.932;2022-10-16T06:57:05;12.40;99.90
53653;DHT22;39553;52.954;5.932;2022-10-16T06:59:31;12.40;99.90
53653;DHT22;39553;52.954;5.932;2022-10-16T07:01:57;12.30;99.90
53653;DHT22;39553;52.954;5.932;2022-10-16T07:04:22;12.40;99.90
53653;DHT22;39553;52.954;5.932;2022-10-16T07:06:48;12.40;99.90
53653;DHT22;39553;52.954;5.932;2022-10-16T07:09:14;12.40;99.90
53653;DHT22;39553;52.954;5.932;2022-10-16T07:11:40;12.40;99.90
53653;DHT22;39553;52.954;5.932;2022-10-16T07:14:15;12.40;99.90
53653;DHT22;39553;52.954;5.932;2022-10-16T07:16:40;12.50;99.90
53653;DHT22;39553;52.954;5.932;2022-10-16T07:19:06;12.50;99.90
53653;DHT22;39553;52.954;5.932;2022-10-16T07:21:33;12.50;99.90
53653;DHT22;39553;52.954;5.932;2022-10-16T07:24:04;12.60;99.90
53653;DHT22;39553;52.954;5.932;2022-10-16T07:26:33;12.60;99.90
53653;DHT22;39553;52.954;5.932;2022-10-16T07:28:59;12.50;99.90
53653;DHT22;39553;52.954;5.932;2022-10-16T07:31:27;12.80;99.90
53653;DHT22;39553;52.954;5.932;2022-10-16T07:33:53;12.80;99.90
53653;DHT22;39553;52.954;5.932;2022-10-16T07:36:20;12.90;99.90
53653;DHT22;39553;52.954;5.932;2022-10-16T07:38:46;12.90;99.90
53653;DHT22;39553;52.954;5.932;2022-10-16T07:41:14;13.00;99.90
53653;DHT22;39553;52.954;5.932;2022-10-16T07:43:47;13.00;99.90
53653;DHT22;39553;52.954;5.932;2022-10-16T07:46:13;13.00;99.90
53653;DHT22;39553;52.954;5.932;2022-10-16T07:48:39;13.10;99.90
53653;DHT22;39553;52.954;5.932;2022-10-16T07:51:11;13.20;99.90
53653;DHT22;39553;52.954;5.932;2022-10-16T07:53:36;13.20;99.90
53653;DHT22;39553;52.954;5.932;2022-10-16T07:56:04;13.20;99.90
53653;DHT22;39553;52.954;5.932;2022-10-16T07:58:32;13.20;99.90
53653;DHT22;39553;52.954;5.932;2022-10-16T08:00:58;13.20;99.90
53653;DHT22;39553;52.954;5.932;2022-10-16T08:03:25;13.30;99.90
53653;DHT22;39553;52.954;5.932;2022-10-16T08:06:00;13.30;99.90
53653;DHT22;39553;52.954;5.932;2022-10-16T08:08:27;13.40;99.90
53653;DHT22;39553;52.954;5.932;2022-10-16T08:10:53;13.50;99.90
53653;DHT22;39553;52.954;5.932;2022-10-16T08:13:19;13.60;99.90
53653;DHT22;39553;52.954;5.932;2022-10-16T08:15:45;13.70;99.90
53653;DHT22;39553;52.954;5.932;2022-10-16T08:18:12;13.80;99.90
53653;DHT22;39553;52.954;5.932;2022-10-16T08:20:39;13.80;99.90
53653;DHT22;39553;52.954;5.932;2022-10-16T08:23:05;13.90;99.90
53653;DHT22;39553;52.954;5.932;2022-10-16T08:25:31;13.90;99.90
53653;DHT22;39553;52.954;5.932;2022-10-16T08:27:57;14.00;99.90
53653;DHT22;39553;52.954;5.932;2022-10-16T08:30:24;14.00;99.90
53653;DHT22;39553;52.954;5.932;2022-10-16T08:32:49;14.10;99.90
53653;DHT22;39553;52.954;5.932;2022-10-16T08:35:16;14.20;99.90
53653;DHT22;39553;52.954;5.932;2022-10-16T08:37:42;14.30;99.90
53653;DHT22;39553;52.954;5.932;2022-10-16T08:40:29;14.50;99.90
53653;DHT22;39553;52.954;5.932;2022-10-16T08:48:32;15.60;99.90
53653;DHT22;39553;52.954;5.932;2022-10-16T08:51:02;15.90;99.90
53653;DHT22;39553;52.954;5.932;2022-10-16T08:53:44;16.20;99.90
53653;DHT22;39553;52.954;5.932;2022-10-16T08:56:10;16.50;99.90
53653;DHT22;39553;52.954;5.932;2022-10-16T08:58:35;16.30;99.90
53653;DHT22;39553;52.954;5.932;2022-10-16T09:01:04;16.40;99.90
53653;DHT22;39553;52.954;5.932;2022-10-16T09:09:30;17.10;99.90
53653;DHT22;39553;52.954;5.932;2022-10-16T09:17:32;17.00;99.90
53653;DHT22;39553;52.954;5.932;2022-10-16T09:22:42;17.00;99.90
53653;DHT22;39553;52.954;5.932;2022-10-16T09:25:17;16.90;99.90
53653;DHT22;39553;52.954;5.932;2022-10-16T09:27:46;16.90;99.90
53653;DHT22;39553;52.954;5.932;2022-10-16T09:30:21;17.00;99.90
53653;DHT22;39553;52.954;5.932;2022-10-16T09:32:52;17.20;99.90
53653;DHT22;39553;52.954;5.932;2022-10-16T09:35:43;17.30;99.90
53653;DHT22;39553;52.954;5.932;2022-10-16T09:38:30;17.40;99.90
53653;DHT22;39553;52.954;5.932;2022-10-16T09:40:58;17.60;99.90
53653;DHT22;39553;52.954;5.932;2022-10-16T09:43:28;17.80;99.90
53653;DHT22;39553;52.954;5.932;2022-10-16T09:46:03;17.90;99.90
53653;DHT22;39553;52.954;5.932;2022-10-16T09:48:43;18.00;99.90
53653;DHT22;39553;52.954;5.932;2022-10-16T09:51:28;18.00;99.90
53653;DHT22;39553;52.954;5.932;2022-10-16T09:56:27;18.00;99.90
53653;DHT22;39553;52.954;5.932;2022-10-16T09:58:58;17.90;99.90
53653;DHT22;39553;52.954;5.932;2022-10-16T10:01:46;18.10;99.90
53653;DHT22;39553;52.954;5.932;2022-10-16T10:04:12;18.10;99.90
53653;DHT22;39553;52.954;5.932;2022-10-16T10:06:50;18.30;99.90
53653;DHT22;39553;52.954;5.932;2022-10-16T10:11:59;17.50;99.90
53653;DHT22;39553;52.954;5.932;2022-10-16T10:14:35;17.00;99.90
53653;DHT22;39553;52.954;5.932;2022-10-16T10:25:00;16.10;99.90
53653;DHT22;39553;52.954;5.932;2022-10-16T10:33:15;16.10;99.90
53653;DHT22;39553;52.954;5.932;2022-10-16T10:36:16;16.10;99.90
53653;DHT22;39553;52.954;5.932;2022-10-16T10:39:13;16.00;99.90
53653;DHT22;39553;52.954;5.932;2022-10-16T10:53:01;16.00;99.90
53653;DHT22;39553;52.954;5.932;2022-10-16T10:58:42;16.00;99.90
53653;DHT22;39553;52.954;5.932;2022-10-16T11:01:18;16.00;99.90
53653;DHT22;39553;52.954;5.932;2022-10-16T11:06:48;16.10;99.90
53653;DHT22;39553;52.954;5.932;2022-10-16T11:09:20;16.10;99.90
53653;DHT22;39553;52.954;5.932;2022-10-16T11:11:51;16.00;99.90
53653;DHT22;39553;52.954;5.932;2022-10-16T11:14:29;16.00;99.90
53653;DHT22;39553;52.954;5.932;2022-10-16T11:17:01;16.00;99.90
53653;DHT22;39553;52.954;5.932;2022-10-16T11:19:44;16.10;99.90
53653;DHT22;39553;52.954;5.932;2022-10-16T11:22:22;16.10;99.90
53653;DHT22;39553;52.954;5.932;2022-10-16T11:25:11;16.20;99.90
53653;DHT22;39553;52.954;5.932;2022-10-16T11:27:47;16.50;99.90
53653;DHT22;39553;52.954;5.932;2022-10-16T11:30:29;16.40;99.90
53653;DHT22;39553;52.954;5.932;2022-10-16T11:35:56;16.30;99.90
53653;DHT22;39553;52.954;5.932;2022-10-16T11:44:19;16.10;99.90
53653;DHT22;39553;52.954;5.932;2022-10-16T11:49:24;16.10;99.90
53653;DHT22;39553;52.954;5.932;2022-10-16T11:51:55;16.10;99.90
53653;DHT22;39553;52.954;5.932;2022-10-16T11:55:22;16.20;99.90
53653;DHT22;39553;52.954;5.932;2022-10-16T11:57:25;16.30;99.90
53653;DHT22;39553;52.954;5.932;2022-10-16T12:00:35;16.30;99.90
53653;DHT22;39553;52.954;5.932;2022-10-16T12:03:28;16.40;99.90
53653;DHT22;39553;52.954;5.932;2022-10-16T12:06:36;16.50;99.90
53653;DHT22;39553;52.954;5.932;2022-10-16T12:09:03;16.40;99.90
53653;DHT22;39553;52.954;5.932;2022-10-16T12:16:51;16.40;99.90
53653;DHT22;39553;52.954;5.932;2022-10-16T12:19:22;16.40;99.90
53653;DHT22;39553;52.954;5.932;2022-10-16T12:21:50;16.40;99.90
53653;DHT22;39553;52.954;5.932;2022-10-16T12:24:41;16.40;99.90
53653;DHT22;39553;52.954;5.932;2022-10-16T12:27:40;16.40;99.90
53653;DHT22;39553;52.954;5.932;2022-10-16T12:30:06;16.40;99.90
53653;DHT22;39553;52.954;5.932;2022-10-16T12:32:37;16.40;99.90
53653;DHT22;39553;52.954;5.932;2022-10-16T12:35:16;16.50;99.90
53653;DHT22;39553;52.954;5.932;2022-10-16T12:37:44;16.50;99.90
53653;DHT22;39553;52.954;5.932;2022-10-16T12:40:29;16.60;99.90
53653;DHT22;39553;52.954;5.932;2022-10-16T12:42:56;16.60;99.90
53653;DHT22;39553;52.954;5.932;2022-10-16T12:45:31;16.70;99.90
53653;DHT22;39553;52.954;5.932;2022-10-16T12:47:58;16.80;99.90
53653;DHT22;39553;52.954;5.932;2022-10-16T12:50:36;16.80;99.90
53653;DHT22;39553;52.954;5.932;2022-10-16T12:53:04;16.90;99.90
53653;DHT22;39553;52.954;5.932;2022-10-16T12:58:49;17.10;99.90
53653;DHT22;39553;52.954;5.932;2022-10-16T13:01:48;17.20;99.90
53653;DHT22;39553;52.954;5.932;2022-10-16T13:04:29;17.10;99.90
53653;DHT22;39553;52.954;5.932;2022-10-16T13:18:29;17.10;99.90
53653;DHT22;39553;52.954;5.932;2022-10-16T13:21:15;17.10;99.90
53653;DHT22;39553;52.954;5.932;2022-10-16T13:23:58;17.10;99.90
53653;DHT22;39553;52.954;5.932;2022-10-16T13:26:41;17.10;99.90
53653;DHT22;39553;52.954;5.932;2022-10-16T13:29:09;17.10;99.90
53653;DHT22;39553;52.954;5.932;2022-10-16T13:31:37;17.10;99.90
53653;DHT22;39553;52.954;5.932;2022-10-16T13:34:05;17.20;99.90
53653;DHT22;39553;52.954;5.932;2022-10-16T13:36:44;17.30;99.90
53653;DHT22;39553;52.954;5.932;2022-10-16T13:39:30;17.20;99.90
53653;DHT22;39553;52.954;5.932;2022-10-16T13:44:39;16.90;99.90
53653;DHT22;39553;52.954;5.932;2022-10-16T13:47:35;16.70;99.90
53653;DHT22;39553;52.954;5.932;2022-10-16T13:50:06;16.60;99.90
53653;DHT22;39553;52.954;5.932;2022-10-16T13:52:34;16.50;99.90
53653;DHT22;39553;52.954;5.932;2022-10-16T13:55:01;16.40;99.90
53653;DHT22;39553;52.954;5.932;2022-10-16T13:57:27;16.40;99.90
53653;DHT22;39553;52.954;5.932;2022-10-16T13:59:53;16.30;99.90
53653;DHT22;39553;52.954;5.932;2022-10-16T14:02:25;16.20;99.90
53653;DHT22;39553;52.954;5.932;2022-10-16T14:04:52;16.20;99.90
53653;DHT22;39553;52.954;5.932;2022-10-16T14:07:33;16.20;99.90
53653;DHT22;39553;52.954;5.932;2022-10-16T14:10:25;16.20;99.90
53653;DHT22;39553;52.954;5.932;2022-10-16T14:13:00;16.20;99.90
53653;DHT22;39553;52.954;5.932;2022-10-16T14:15:27;16.10;99.90
53653;DHT22;39553;52.954;5.932;2022-10-16T14:17:54;16.00;99.90
53653;DHT22;39553;52.954;5.932;2022-10-16T14:20:27;16.00;99.90
53653;DHT22;39553;52.954;5.932;2022-10-16T14:23:03;15.90;99.90
53653;DHT22;39553;52.954;5.932;2022-10-16T14:25:32;15.90;99.90
53653;DHT22;39553;52.954;5.932;2022-10-16T14:28:22;15.90;99.90
53653;DHT22;39553;52.954;5.932;2022-10-16T14:30:54;15.90;99.90
53653;DHT22;39553;52.954;5.932;2022-10-16T14:33:23;15.90;99.90
53653;DHT22;39553;52.954;5.932;2022-10-16T14:38:41;15.80;99.90
53653;DHT22;39553;52.954;5.932;2022-10-16T14:41:07;15.80;99.90
53653;DHT22;39553;52.954;5.932;2022-10-16T14:43:39;15.80;99.90
53653;DHT22;39553;52.954;5.932;2022-10-16T14:46:21;15.80;99.90
53653;DHT22;39553;52.954;5.932;2022-10-16T14:49:00;15.80;99.90
53653;DHT22;39553;52.954;5.932;2022-10-16T14:51:27;15.70;99.90
53653;DHT22;39553;52.954;5.932;2022-10-16T14:53:53;15.70;99.90
53653;DHT22;39553;52.954;5.932;2022-10-16T14:56:24;15.70;99.90
53653;DHT22;39553;52.954;5.932;2022-10-16T14:58:51;15.70;99.90
53653;DHT22;39553;52.954;5.932;2022-10-16T15:01:17;15.70;99.90
53653;DHT22;39553;52.954;5.932;2022-10-16T15:03:43;15.70;99.90
53653;DHT22;39553;52.954;5.932;2022-10-16T15:06:14;15.70;99.90
53653;DHT22;39553;52.954;5.932;2022-10-16T15:08:40;15.60;99.90
53653;DHT22;39553;52.954;5.932;2022-10-16T15:11:26;15.60;99.90
53653;DHT22;39553;52.954;5.932;2022-10-16T15:13:52;15.60;99.90
53653;DHT22;39553;52.954;5.932;2022-10-16T15:16:18;15.60;99.90
53653;DHT22;39553;52.954;5.932;2022-10-16T15:18:43;15.50;99.90
53653;DHT22;39553;52.954;5.932;2022-10-16T15:21:23;15.50;99.90
53653;DHT22;39553;52.954;5.932;2022-10-16T15:23:49;15.50;99.90
53653;DHT22;39553;52.954;5.932;2022-10-16T15:26:16;15.40;99.90
53653;DHT22;39553;52.954;5.932;2022-10-16T15:28:42;15.40;99.90
53653;DHT22;39553;52.954;5.932;2022-10-16T15:31:07;15.30;99.90
53653;DHT22;39553;52.954;5.932;2022-10-16T15:33:33;15.20;99.90
53653;DHT22;39553;52.954;5.932;2022-10-16T15:36:00;15.20;99.90
53653;DHT22;39553;52.954;5.932;2022-10-16T15:38:27;15.20;99.90
53653;DHT22;39553;52.954;5.932;2022-10-16T15:40:54;15.10;99.90
53653;DHT22;39553;52.954;5.932;2022-10-16T15:43:20;15.10;99.90
53653;DHT22;39553;52.954;5.932;2022-10-16T15:46:17;15.00;99.90
53653;DHT22;39553;52.954;5.932;2022-10-16T15:48:43;15.00;99.90
53653;DHT22;39553;52.954;5.932;2022-10-16T15:51:09;14.80;99.90
53653;DHT22;39553;52.954;5.932;2022-10-16T15:53:35;14.80;99.90
53653;DHT22;39553;52.954;5.932;2022-10-16T15:56:05;14.70;99.90
53653;DHT22;39553;52.954;5.932;2022-10-16T15:58:31;14.60;99.90
53653;DHT22;39553;52.954;5.932;2022-10-16T16:00:59;14.50;99.90
53653;DHT22;39553;52.954;5.932;2022-10-16T16:03:29;14.40;99.90
53653;DHT22;39553;52.954;5.932;2022-10-16T16:05:55;14.30;99.90
53653;DHT22;39553;52.954;5.932;2022-10-16T16:08:21;14.20;99.90
53653;DHT22;39553;52.954;5.932;2022-10-16T16:11:01;14.10;99.90
53653;DHT22;39553;52.954;5.932;2022-10-16T16:13:27;14.10;99.90
53653;DHT22;39553;52.954;5.932;2022-10-16T16:15:53;13.90;99.90
53653;DHT22;39553;52.954;5.932;2022-10-16T16:18:19;13.90;99.90
53653;DHT22;39553;52.954;5.932;2022-10-16T16:20:44;13.80;99.90
53653;DHT22;39553;52.954;5.932;2022-10-16T16:23:10;13.70;99.90
53653;DHT22;39553;52.954;5.932;2022-10-16T16:25:36;13.70;99.90
53653;DHT22;39553;52.954;5.932;2022-10-16T16:28:02;13.60;99.90
53653;DHT22;39553;52.954;5.932;2022-10-16T16:30:27;13.50;99.90
53653;DHT22;39553;52.954;5.932;2022-10-16T16:32:53;13.40;99.90
53653;DHT22;39553;52.954;5.932;2022-10-16T16:35:19;13.40;99.90
53653;DHT22;39553;52.954;5.932;2022-10-16T16:37:47;13.30;99.90
53653;DHT22;39553;52.954;5.932;2022-10-16T16:40:12;13.20;99.90
53653;DHT22;39553;52.954;5.932;2022-10-16T16:42:38;13.20;99.90
53653;DHT22;39553;52.954;5.932;2022-10-16T16:45:04;13.40;99.90
53653;DHT22;39553;52.954;5.932;2022-10-16T16:47:30;13.10;99.90
53653;DHT22;39553;52.954;5.932;2022-10-16T16:49:56;13.00;99.90
53653;DHT22;39553;52.954;5.932;2022-10-16T16:52:21;12.90;99.90
53653;DHT22;39553;52.954;5.932;2022-10-16T16:54:48;12.90;99.90
53653;DHT22;39553;52.954;5.932;2022-10-16T16:57:18;12.80;99.90
53653;DHT22;39553;52.954;5.932;2022-10-16T16:59:45;12.80;99.90
53653;DHT22;39553;52.954;5.932;2022-10-16T17:02:10;12.70;99.90
53653;DHT22;39553;52.954;5.932;2022-10-16T17:04:36;12.60;99.90
53653;DHT22;39553;52.954;5.932;2022-10-16T17:07:02;12.50;99.90
53653;DHT22;39553;52.954;5.932;2022-10-16T17:09:27;12.40;99.90
53653;DHT22;39553;52.954;5.932;2022-10-16T17:11:53;12.30;99.90
53653;DHT22;39553;52.954;5.932;2022-10-16T17:14:19;12.30;99.90
53653;DHT22;39553;52.954;5.932;2022-10-16T17:16:45;12.20;99.90
53653;DHT22;39553;52.954;5.932;2022-10-16T17:19:16;12.20;99.90
53653;DHT22;39553;52.954;5.932;2022-10-16T17:21:42;12.20;99.90
53653;DHT22;39553;52.954;5.932;2022-10-16T17:24:08;12.20;99.90
53653;DHT22;39553;52.954;5.932;2022-10-16T17:26:36;12.20;99.90
53653;DHT22;39553;52.954;5.932;2022-10-16T17:29:03;12.10;99.90
53653;DHT22;39553;52.954;5.932;2022-10-16T17:31:31;12.10;99.90
53653;DHT22;39553;52.954;5.932;2022-10-16T17:33:59;12.10;99.90